Buen Pasto, Argentina
Current Conditions -  °F | °C
As of 2:00 AM on Thursday 23 Oct 2014 (Local Time) from SAVC Reporting Station
Clear Clear  
Wind Chill: 14°   Ceiling: Unl
Heat Index: 14°   Visibility: 6mi
Dew Point:   Wind: 20mph
Humidity: 38%   Direction: 270°W
Pressure: 30"   Gusts: NA
Location:  45.08°S, 69.47°W
Report Text: SAVC 230500Z 27017KT CAVOK 14/00 Q1016
Loading
Personal Weather Stations






























Interactive Weather Map
Tropical Storm Tracking
New forecast layout! Learn more

10-Day Weather Forecast

Advertisements
Track Severe Weather on mobile